sensor_id;sensor_type;location;lat;lon;timestamp;P1;durP1;ratioP1;P2;durP2;ratioP2
64601;SDS011;68371;42.630;23.192;2023-05-10T00:01:33;5.60;;;2.58;;
64601;SDS011;68371;42.630;23.192;2023-05-10T00:04:00;4.95;;;2.78;;
64601;SDS011;68371;42.630;23.192;2023-05-10T00:06:27;4.40;;;2.83;;
64601;SDS011;68371;42.630;23.192;2023-05-10T00:08:55;4.18;;;2.55;;
64601;SDS011;68371;42.630;23.192;2023-05-10T00:11:23;4.45;;;3.00;;
64601;SDS011;68371;42.630;23.192;2023-05-10T00:13:49;4.05;;;2.67;;
64601;SDS011;68371;42.630;23.192;2023-05-10T00:16:16;5.82;;;3.17;;
64601;SDS011;68371;42.630;23.192;2023-05-10T00:18:43;5.10;;;2.97;;
64601;SDS011;68371;42.630;23.192;2023-05-10T00:21:09;4.57;;;2.90;;
64601;SDS011;68371;42.630;23.192;2023-05-10T00:23:36;8.15;;;3.30;;
64601;SDS011;68371;42.630;23.192;2023-05-10T00:26:04;5.20;;;3.42;;
64601;SDS011;68371;42.630;23.192;2023-05-10T00:28:31;6.35;;;3.60;;
64601;SDS011;68371;42.630;23.192;2023-05-10T00:30:58;6.82;;;4.28;;
64601;SDS011;68371;42.630;23.192;2023-05-10T00:33:25;7.72;;;3.50;;
64601;SDS011;68371;42.630;23.192;2023-05-10T00:35:52;5.63;;;3.30;;
64601;SDS011;68371;42.630;23.192;2023-05-10T00:38:19;5.43;;;3.50;;
64601;SDS011;68371;42.630;23.192;2023-05-10T00:40:46;5.18;;;3.50;;
64601;SDS011;68371;42.630;23.192;2023-05-10T00:43:14;7.57;;;3.92;;
64601;SDS011;68371;42.630;23.192;2023-05-10T00:45:40;5.05;;;3.10;;
64601;SDS011;68371;42.630;23.192;2023-05-10T00:48:07;7.72;;;3.63;;
64601;SDS011;68371;42.630;23.192;2023-05-10T00:50:34;6.07;;;3.38;;
64601;SDS011;68371;42.630;23.192;2023-05-10T00:53:01;5.30;;;3.58;;
64601;SDS011;68371;42.630;23.192;2023-05-10T00:55:29;5.85;;;3.42;;
64601;SDS011;68371;42.630;23.192;2023-05-10T00:57:56;5.30;;;3.50;;
64601;SDS011;68371;42.630;23.192;2023-05-10T01:00:26;6.45;;;3.85;;
64601;SDS011;68371;42.630;23.192;2023-05-10T01:02:54;5.88;;;3.97;;
64601;SDS011;68371;42.630;23.192;2023-05-10T01:05:21;6.15;;;3.90;;
64601;SDS011;68371;42.630;23.192;2023-05-10T01:07:48;6.13;;;3.72;;
64601;SDS011;68371;42.630;23.192;2023-05-10T01:10:14;6.45;;;3.35;;
64601;SDS011;68371;42.630;23.192;2023-05-10T01:12:42;6.53;;;3.90;;
64601;SDS011;68371;42.630;23.192;2023-05-10T01:15:10;7.07;;;3.30;;
64601;SDS011;68371;42.630;23.192;2023-05-10T01:17:40;5.15;;;3.60;;
64601;SDS011;68371;42.630;23.192;2023-05-10T01:20:10;5.47;;;3.58;;
64601;SDS011;68371;42.630;23.192;2023-05-10T01:22:47;7.68;;;3.42;;
64601;SDS011;68371;42.630;23.192;2023-05-10T01:25:31;5.60;;;3.50;;
64601;SDS011;68371;42.630;23.192;2023-05-10T01:31:15;6.05;;;3.50;;
64601;SDS011;68371;42.630;23.192;2023-05-10T01:33:51;4.72;;;3.30;;
64601;SDS011;68371;42.630;23.192;2023-05-10T01:36:23;4.35;;;3.40;;
64601;SDS011;68371;42.630;23.192;2023-05-10T01:38:57;5.53;;;3.70;;
64601;SDS011;68371;42.630;23.192;2023-05-10T01:41:31;6.80;;;3.95;;
64601;SDS011;68371;42.630;23.192;2023-05-10T01:44:10;5.93;;;3.75;;
64601;SDS011;68371;42.630;23.192;2023-05-10T01:46:44;9.38;;;5.32;;
64601;SDS011;68371;42.630;23.192;2023-05-10T01:49:23;7.95;;;4.28;;
64601;SDS011;68371;42.630;23.192;2023-05-10T01:51:53;5.93;;;4.32;;
64601;SDS011;68371;42.630;23.192;2023-05-10T01:54:23;5.88;;;4.10;;
64601;SDS011;68371;42.630;23.192;2023-05-10T01:56:52;6.45;;;4.07;;
64601;SDS011;68371;42.630;23.192;2023-05-10T01:59:27;8.10;;;4.38;;
64601;SDS011;68371;42.630;23.192;2023-05-10T02:02:01;8.90;;;4.78;;
64601;SDS011;68371;42.630;23.192;2023-05-10T02:04:32;6.57;;;4.30;;
64601;SDS011;68371;42.630;23.192;2023-05-10T02:07:02;9.43;;;3.92;;
64601;SDS011;68371;42.630;23.192;2023-05-10T02:09:31;5.05;;;3.58;;
64601;SDS011;68371;42.630;23.192;2023-05-10T02:11:58;10.15;;;3.65;;
64601;SDS011;68371;42.630;23.192;2023-05-10T02:14:27;6.97;;;3.45;;
64601;SDS011;68371;42.630;23.192;2023-05-10T02:16:56;5.88;;;4.00;;
64601;SDS011;68371;42.630;23.192;2023-05-10T02:19:27;7.00;;;3.50;;
64601;SDS011;68371;42.630;23.192;2023-05-10T02:21:56;4.85;;;3.50;;
64601;SDS011;68371;42.630;23.192;2023-05-10T02:24:25;4.57;;;2.90;;
64601;SDS011;68371;42.630;23.192;2023-05-10T02:26:53;4.70;;;3.00;;
64601;SDS011;68371;42.630;23.192;2023-05-10T02:29:21;4.82;;;3.45;;
64601;SDS011;68371;42.630;23.192;2023-05-10T02:31:49;4.20;;;2.92;;
64601;SDS011;68371;42.630;23.192;2023-05-10T02:34:18;3.95;;;3.08;;
64601;SDS011;68371;42.630;23.192;2023-05-10T02:36:46;6.50;;;2.70;;
64601;SDS011;68371;42.630;23.192;2023-05-10T02:39:15;5.00;;;3.65;;
64601;SDS011;68371;42.630;23.192;2023-05-10T02:41:45;4.10;;;3.05;;
64601;SDS011;68371;42.630;23.192;2023-05-10T02:44:13;5.60;;;3.45;;
64601;SDS011;68371;42.630;23.192;2023-05-10T02:46:41;5.47;;;3.35;;
64601;SDS011;68371;42.630;23.192;2023-05-10T02:49:08;4.65;;;3.53;;
64601;SDS011;68371;42.630;23.192;2023-05-10T02:51:36;6.50;;;3.38;;
64601;SDS011;68371;42.630;23.192;2023-05-10T02:54:07;5.35;;;3.78;;
64601;SDS011;68371;42.630;23.192;2023-05-10T02:56:40;5.15;;;3.78;;
64601;SDS011;68371;42.630;23.192;2023-05-10T02:59:10;7.10;;;3.35;;
64601;SDS011;68371;42.630;23.192;2023-05-10T03:01:37;4.95;;;3.30;;
64601;SDS011;68371;42.630;23.192;2023-05-10T03:04:04;4.50;;;3.22;;
64601;SDS011;68371;42.630;23.192;2023-05-10T03:06:31;4.47;;;3.28;;
64601;SDS011;68371;42.630;23.192;2023-05-10T03:08:58;7.65;;;3.72;;
64601;SDS011;68371;42.630;23.192;2023-05-10T03:11:28;5.00;;;3.63;;
64601;SDS011;68371;42.630;23.192;2023-05-10T03:14:09;5.10;;;3.08;;
64601;SDS011;68371;42.630;23.192;2023-05-10T03:16:41;4.40;;;3.53;;
64601;SDS011;68371;42.630;23.192;2023-05-10T03:19:12;5.68;;;3.55;;
64601;SDS011;68371;42.630;23.192;2023-05-10T03:21:45;4.57;;;3.33;;
64601;SDS011;68371;42.630;23.192;2023-05-10T03:24:16;5.20;;;3.60;;
64601;SDS011;68371;42.630;23.192;2023-05-10T03:26:44;5.75;;;3.80;;
64601;SDS011;68371;42.630;23.192;2023-05-10T03:29:13;6.32;;;3.80;;
64601;SDS011;68371;42.630;23.192;2023-05-10T03:31:41;5.40;;;3.40;;
64601;SDS011;68371;42.630;23.192;2023-05-10T03:34:08;6.10;;;3.65;;
64601;SDS011;68371;42.630;23.192;2023-05-10T03:36:34;7.70;;;4.30;;
64601;SDS011;68371;42.630;23.192;2023-05-10T03:39:01;7.95;;;4.28;;
64601;SDS011;68371;42.630;23.192;2023-05-10T03:41:28;7.63;;;3.78;;
64601;SDS011;68371;42.630;23.192;2023-05-10T03:43:55;6.15;;;4.05;;
64601;SDS011;68371;42.630;23.192;2023-05-10T03:46:23;8.00;;;5.30;;
64601;SDS011;68371;42.630;23.192;2023-05-10T03:48:50;6.88;;;4.03;;
64601;SDS011;68371;42.630;23.192;2023-05-10T03:51:16;7.90;;;4.57;;
64601;SDS011;68371;42.630;23.192;2023-05-10T03:53:43;7.22;;;4.63;;
64601;SDS011;68371;42.630;23.192;2023-05-10T03:56:10;7.18;;;4.20;;
64601;SDS011;68371;42.630;23.192;2023-05-10T03:58:37;6.68;;;4.05;;
64601;SDS011;68371;42.630;23.192;2023-05-10T04:01:04;8.68;;;4.30;;
64601;SDS011;68371;42.630;23.192;2023-05-10T04:03:32;6.95;;;4.30;;
64601;SDS011;68371;42.630;23.192;2023-05-10T04:06:01;7.47;;;3.95;;
64601;SDS011;68371;42.630;23.192;2023-05-10T04:08:28;7.40;;;5.25;;
64601;SDS011;68371;42.630;23.192;2023-05-10T04:10:54;6.38;;;3.83;;
64601;SDS011;68371;42.630;23.192;2023-05-10T04:13:31;6.18;;;3.67;;
64601;SDS011;68371;42.630;23.192;2023-05-10T04:15:58;7.10;;;4.88;;
64601;SDS011;68371;42.630;23.192;2023-05-10T04:18:24;5.75;;;4.00;;
64601;SDS011;68371;42.630;23.192;2023-05-10T04:20:52;6.28;;;4.20;;
64601;SDS011;68371;42.630;23.192;2023-05-10T04:23:19;10.48;;;4.35;;
64601;SDS011;68371;42.630;23.192;2023-05-10T04:25:46;7.40;;;4.63;;
64601;SDS011;68371;42.630;23.192;2023-05-10T04:28:12;7.72;;;4.50;;
64601;SDS011;68371;42.630;23.192;2023-05-10T04:30:39;6.43;;;3.95;;
64601;SDS011;68371;42.630;23.192;2023-05-10T04:33:07;6.18;;;3.90;;
64601;SDS011;68371;42.630;23.192;2023-05-10T04:35:34;6.47;;;4.13;;
64601;SDS011;68371;42.630;23.192;2023-05-10T04:38:03;7.93;;;4.13;;
64601;SDS011;68371;42.630;23.192;2023-05-10T04:40:30;7.05;;;4.13;;
64601;SDS011;68371;42.630;23.192;2023-05-10T04:42:56;6.57;;;4.25;;
64601;SDS011;68371;42.630;23.192;2023-05-10T04:45:23;6.47;;;4.38;;
64601;SDS011;68371;42.630;23.192;2023-05-10T04:47:50;9.98;;;4.63;;
64601;SDS011;68371;42.630;23.192;2023-05-10T04:50:16;8.18;;;4.55;;
64601;SDS011;68371;42.630;23.192;2023-05-10T04:52:45;7.68;;;4.00;;
64601;SDS011;68371;42.630;23.192;2023-05-10T04:55:13;7.85;;;4.60;;
64601;SDS011;68371;42.630;23.192;2023-05-10T04:57:41;11.05;;;4.65;;
64601;SDS011;68371;42.630;23.192;2023-05-10T05:00:08;8.88;;;3.95;;
64601;SDS011;68371;42.630;23.192;2023-05-10T05:02:35;8.60;;;4.75;;
64601;SDS011;68371;42.630;23.192;2023-05-10T05:05:03;7.00;;;4.47;;
64601;SDS011;68371;42.630;23.192;2023-05-10T05:07:30;10.57;;;4.93;;
64601;SDS011;68371;42.630;23.192;2023-05-10T05:09:56;8.63;;;4.85;;
64601;SDS011;68371;42.630;23.192;2023-05-10T05:12:25;7.80;;;5.07;;
64601;SDS011;68371;42.630;23.192;2023-05-10T05:14:51;9.55;;;5.28;;
64601;SDS011;68371;42.630;23.192;2023-05-10T05:17:18;9.32;;;5.55;;
64601;SDS011;68371;42.630;23.192;2023-05-10T05:19:44;14.52;;;9.50;;
64601;SDS011;68371;42.630;23.192;2023-05-10T05:22:11;9.60;;;6.35;;
64601;SDS011;68371;42.630;23.192;2023-05-10T05:24:38;9.27;;;5.25;;
64601;SDS011;68371;42.630;23.192;2023-05-10T05:27:04;13.70;;;5.60;;
64601;SDS011;68371;42.630;23.192;2023-05-10T05:29:34;8.52;;;4.95;;
64601;SDS011;68371;42.630;23.192;2023-05-10T05:32:00;11.32;;;4.95;;
64601;SDS011;68371;42.630;23.192;2023-05-10T05:34:27;8.68;;;4.95;;
64601;SDS011;68371;42.630;23.192;2023-05-10T05:36:54;15.55;;;4.90;;
64601;SDS011;68371;42.630;23.192;2023-05-10T05:39:20;7.60;;;4.93;;
64601;SDS011;68371;42.630;23.192;2023-05-10T05:41:47;8.73;;;5.32;;
64601;SDS011;68371;42.630;23.192;2023-05-10T05:44:14;9.25;;;5.00;;
64601;SDS011;68371;42.630;23.192;2023-05-10T05:46:42;8.05;;;4.82;;
64601;SDS011;68371;42.630;23.192;2023-05-10T05:49:09;7.20;;;4.45;;
64601;SDS011;68371;42.630;23.192;2023-05-10T05:51:35;8.82;;;4.65;;
64601;SDS011;68371;42.630;23.192;2023-05-10T05:54:02;8.63;;;5.13;;
64601;SDS011;68371;42.630;23.192;2023-05-10T05:56:29;11.25;;;6.35;;
64601;SDS011;68371;42.630;23.192;2023-05-10T05:58:56;12.50;;;7.65;;
64601;SDS011;68371;42.630;23.192;2023-05-10T06:01:23;15.05;;;8.63;;
64601;SDS011;68371;42.630;23.192;2023-05-10T06:03:51;20.42;;;12.10;;
64601;SDS011;68371;42.630;23.192;2023-05-10T06:06:17;13.38;;;8.10;;
64601;SDS011;68371;42.630;23.192;2023-05-10T06:08:44;11.35;;;7.72;;
64601;SDS011;68371;42.630;23.192;2023-05-10T06:11:11;11.35;;;6.40;;
64601;SDS011;68371;42.630;23.192;2023-05-10T06:13:37;9.57;;;6.18;;
64601;SDS011;68371;42.630;23.192;2023-05-10T06:16:04;11.75;;;5.72;;
64601;SDS011;68371;42.630;23.192;2023-05-10T06:18:31;10.02;;;5.88;;
64601;SDS011;68371;42.630;23.192;2023-05-10T06:20:59;8.88;;;6.05;;
64601;SDS011;68371;42.630;23.192;2023-05-10T06:23:26;10.80;;;6.97;;
64601;SDS011;68371;42.630;23.192;2023-05-10T06:25:53;13.00;;;6.40;;
64601;SDS011;68371;42.630;23.192;2023-05-10T06:28:20;10.23;;;6.10;;
64601;SDS011;68371;42.630;23.192;2023-05-10T06:30:47;10.50;;;6.43;;
64601;SDS011;68371;42.630;23.192;2023-05-10T06:33:13;11.40;;;6.30;;
64601;SDS011;68371;42.630;23.192;2023-05-10T06:35:41;12.50;;;6.82;;
64601;SDS011;68371;42.630;23.192;2023-05-10T06:38:09;11.07;;;7.13;;
64601;SDS011;68371;42.630;23.192;2023-05-10T06:40:35;12.15;;;6.57;;
64601;SDS011;68371;42.630;23.192;2023-05-10T06:43:02;10.75;;;6.75;;
64601;SDS011;68371;42.630;23.192;2023-05-10T06:45:29;15.80;;;7.70;;
64601;SDS011;68371;42.630;23.192;2023-05-10T06:47:56;16.23;;;8.43;;
64601;SDS011;68371;42.630;23.192;2023-05-10T06:50:23;20.58;;;11.85;;
64601;SDS011;68371;42.630;23.192;2023-05-10T06:52:49;15.55;;;9.18;;
64601;SDS011;68371;42.630;23.192;2023-05-10T06:55:17;12.70;;;7.97;;
64601;SDS011;68371;42.630;23.192;2023-05-10T06:57:44;12.82;;;7.00;;
64601;SDS011;68371;42.630;23.192;2023-05-10T07:00:11;16.27;;;7.75;;
64601;SDS011;68371;42.630;23.192;2023-05-10T07:02:38;13.93;;;7.50;;
64601;SDS011;68371;42.630;23.192;2023-05-10T07:05:05;11.45;;;6.97;;
64601;SDS011;68371;42.630;23.192;2023-05-10T07:22:50;12.45;;;8.00;;
64601;SDS011;68371;42.630;23.192;2023-05-10T07:25:17;13.95;;;7.63;;
64601;SDS011;68371;42.630;23.192;2023-05-10T07:27:43;12.77;;;7.53;;
64601;SDS011;68371;42.630;23.192;2023-05-10T07:30:11;18.27;;;9.52;;
64601;SDS011;68371;42.630;23.192;2023-05-10T07:32:39;17.88;;;8.50;;
64601;SDS011;68371;42.630;23.192;2023-05-10T07:35:07;15.27;;;8.02;;
64601;SDS011;68371;42.630;23.192;2023-05-10T07:37:34;32.70;;;12.00;;
64601;SDS011;68371;42.630;23.192;2023-05-10T07:40:02;38.72;;;16.05;;
64601;SDS011;68371;42.630;23.192;2023-05-10T07:42:29;24.73;;;10.90;;
64601;SDS011;68371;42.630;23.192;2023-05-10T07:44:56;75.30;;;25.83;;
64601;SDS011;68371;42.630;23.192;2023-05-10T07:47:23;54.38;;;18.70;;
64601;SDS011;68371;42.630;23.192;2023-05-10T07:49:49;17.33;;;8.25;;
64601;SDS011;68371;42.630;23.192;2023-05-10T07:52:16;11.02;;;6.95;;
64601;SDS011;68371;42.630;23.192;2023-05-10T07:54:43;13.45;;;8.68;;
64601;SDS011;68371;42.630;23.192;2023-05-10T07:57:12;14.90;;;7.05;;
64601;SDS011;68371;42.630;23.192;2023-05-10T07:59:43;16.42;;;8.20;;
64601;SDS011;68371;42.630;23.192;2023-05-10T08:02:10;11.25;;;7.18;;
64601;SDS011;68371;42.630;23.192;2023-05-10T08:04:38;11.85;;;7.68;;
64601;SDS011;68371;42.630;23.192;2023-05-10T08:07:05;15.07;;;7.78;;
64601;SDS011;68371;42.630;23.192;2023-05-10T08:09:32;14.32;;;6.78;;
64601;SDS011;68371;42.630;23.192;2023-05-10T08:11:58;11.80;;;6.75;;
64601;SDS011;68371;42.630;23.192;2023-05-10T08:14:27;14.38;;;7.30;;
64601;SDS011;68371;42.630;23.192;2023-05-10T08:16:55;18.58;;;7.57;;
64601;SDS011;68371;42.630;23.192;2023-05-10T08:19:21;13.88;;;7.20;;
64601;SDS011;68371;42.630;23.192;2023-05-10T08:21:49;13.25;;;7.60;;
64601;SDS011;68371;42.630;23.192;2023-05-10T08:24:16;12.30;;;7.28;;
64601;SDS011;68371;42.630;23.192;2023-05-10T08:26:42;11.75;;;5.80;;
64601;SDS011;68371;42.630;23.192;2023-05-10T08:29:10;12.45;;;6.90;;
64601;SDS011;68371;42.630;23.192;2023-05-10T08:31:38;12.20;;;6.70;;
64601;SDS011;68371;42.630;23.192;2023-05-10T08:34:05;14.77;;;7.32;;
64601;SDS011;68371;42.630;23.192;2023-05-10T08:36:32;12.07;;;7.18;;
64601;SDS011;68371;42.630;23.192;2023-05-10T08:38:58;12.55;;;7.68;;
64601;SDS011;68371;42.630;23.192;2023-05-10T08:41:25;13.20;;;7.28;;
64601;SDS011;68371;42.630;23.192;2023-05-10T08:43:52;10.38;;;7.03;;
64601;SDS011;68371;42.630;23.192;2023-05-10T08:46:20;11.38;;;6.68;;
64601;SDS011;68371;42.630;23.192;2023-05-10T08:48:50;11.98;;;7.20;;
64601;SDS011;68371;42.630;23.192;2023-05-10T08:51:18;9.70;;;6.00;;
64601;SDS011;68371;42.630;23.192;2023-05-10T08:53:48;10.05;;;6.43;;
64601;SDS011;68371;42.630;23.192;2023-05-10T08:56:18;11.00;;;6.70;;
64601;SDS011;68371;42.630;23.192;2023-05-10T08:58:46;10.32;;;6.78;;
64601;SDS011;68371;42.630;23.192;2023-05-10T09:01:13;13.60;;;7.82;;
64601;SDS011;68371;42.630;23.192;2023-05-10T09:03:44;14.48;;;7.40;;
64601;SDS011;68371;42.630;23.192;2023-05-10T09:06:15;12.85;;;6.90;;
64601;SDS011;68371;42.630;23.192;2023-05-10T09:08:43;11.18;;;6.55;;
64601;SDS011;68371;42.630;23.192;2023-05-10T09:11:13;13.00;;;6.97;;
64601;SDS011;68371;42.630;23.192;2023-05-10T09:13:41;11.50;;;7.25;;
64601;SDS011;68371;42.630;23.192;2023-05-10T09:16:09;16.65;;;7.60;;
64601;SDS011;68371;42.630;23.192;2023-05-10T09:18:35;9.73;;;6.15;;
64601;SDS011;68371;42.630;23.192;2023-05-10T09:21:02;16.52;;;6.45;;
64601;SDS011;68371;42.630;23.192;2023-05-10T09:23:30;12.50;;;7.40;;
64601;SDS011;68371;42.630;23.192;2023-05-10T09:26:03;11.63;;;6.60;;
64601;SDS011;68371;42.630;23.192;2023-05-10T09:28:31;12.35;;;6.95;;
64601;SDS011;68371;42.630;23.192;2023-05-10T09:30:58;9.90;;;6.85;;
64601;SDS011;68371;42.630;23.192;2023-05-10T09:33:25;11.45;;;7.18;;
64601;SDS011;68371;42.630;23.192;2023-05-10T09:35:52;12.55;;;6.50;;
64601;SDS011;68371;42.630;23.192;2023-05-10T09:38:19;13.00;;;6.97;;
64601;SDS011;68371;42.630;23.192;2023-05-10T09:40:51;9.40;;;6.35;;
64601;SDS011;68371;42.630;23.192;2023-05-10T09:43:20;10.75;;;7.15;;
64601;SDS011;68371;42.630;23.192;2023-05-10T09:45:49;15.52;;;7.50;;
64601;SDS011;68371;42.630;23.192;2023-05-10T09:48:15;10.48;;;6.72;;
64601;SDS011;68371;42.630;23.192;2023-05-10T09:50:42;9.50;;;6.30;;
64601;SDS011;68371;42.630;23.192;2023-05-10T09:53:09;10.73;;;6.35;;
64601;SDS011;68371;42.630;23.192;2023-05-10T09:55:40;8.88;;;6.05;;
64601;SDS011;68371;42.630;23.192;2023-05-10T09:58:11;9.95;;;5.80;;
64601;SDS011;68371;42.630;23.192;2023-05-10T10:00:39;10.70;;;6.38;;
64601;SDS011;68371;42.630;23.192;2023-05-10T10:03:06;11.15;;;6.70;;
64601;SDS011;68371;42.630;23.192;2023-05-10T10:05:39;9.63;;;5.82;;
64601;SDS011;68371;42.630;23.192;2023-05-10T10:08:07;9.65;;;6.53;;
64601;SDS011;68371;42.630;23.192;2023-05-10T10:10:34;9.65;;;5.93;;
64601;SDS011;68371;42.630;23.192;2023-05-10T10:13:01;9.95;;;6.28;;
64601;SDS011;68371;42.630;23.192;2023-05-10T10:15:31;10.75;;;7.15;;
64601;SDS011;68371;42.630;23.192;2023-05-10T10:17:59;8.85;;;6.07;;
64601;SDS011;68371;42.630;23.192;2023-05-10T10:20:26;11.30;;;6.20;;
64601;SDS011;68371;42.630;23.192;2023-05-10T10:22:54;9.80;;;6.57;;
64601;SDS011;68371;42.630;23.192;2023-05-10T10:25:21;10.88;;;6.40;;
64601;SDS011;68371;42.630;23.192;2023-05-10T10:27:54;9.50;;;6.50;;
64601;SDS011;68371;42.630;23.192;2023-05-10T10:30:37;8.45;;;5.88;;
64601;SDS011;68371;42.630;23.192;2023-05-10T10:33:18;8.48;;;5.22;;
64601;SDS011;68371;42.630;23.192;2023-05-10T10:35:58;8.88;;;5.28;;
64601;SDS011;68371;42.630;23.192;2023-05-10T10:38:26;10.27;;;5.90;;
64601;SDS011;68371;42.630;23.192;2023-05-10T10:41:03;10.90;;;6.20;;
64601;SDS011;68371;42.630;23.192;2023-05-10T10:43:36;12.75;;;6.63;;
64601;SDS011;68371;42.630;23.192;2023-05-10T10:46:11;12.18;;;6.57;;
64601;SDS011;68371;42.630;23.192;2023-05-10T10:48:46;12.25;;;7.07;;
64601;SDS011;68371;42.630;23.192;2023-05-10T10:51:14;10.02;;;5.93;;
64601;SDS011;68371;42.630;23.192;2023-05-10T10:53:41;10.02;;;7.22;;
64601;SDS011;68371;42.630;23.192;2023-05-10T10:56:09;9.98;;;6.05;;
64601;SDS011;68371;42.630;23.192;2023-05-10T10:58:38;9.20;;;6.78;;
64601;SDS011;68371;42.630;23.192;2023-05-10T11:01:11;11.57;;;7.05;;
64601;SDS011;68371;42.630;23.192;2023-05-10T11:03:39;11.43;;;7.47;;
64601;SDS011;68371;42.630;23.192;2023-05-10T11:06:06;11.23;;;7.10;;
64601;SDS011;68371;42.630;23.192;2023-05-10T11:08:34;10.43;;;7.22;;
64601;SDS011;68371;42.630;23.192;2023-05-10T11:11:07;13.30;;;6.80;;
64601;SDS011;68371;42.630;23.192;2023-05-10T11:13:36;10.55;;;6.95;;
64601;SDS011;68371;42.630;23.192;2023-05-10T11:16:16;10.52;;;6.15;;
64601;SDS011;68371;42.630;23.192;2023-05-10T11:18:57;10.25;;;6.55;;
64601;SDS011;68371;42.630;23.192;2023-05-10T11:21:27;12.13;;;6.38;;
64601;SDS011;68371;42.630;23.192;2023-05-10T11:23:55;9.55;;;6.47;;
64601;SDS011;68371;42.630;23.192;2023-05-10T11:26:24;8.15;;;6.43;;
64601;SDS011;68371;42.630;23.192;2023-05-10T11:28:51;8.55;;;5.97;;
64601;SDS011;68371;42.630;23.192;2023-05-10T11:31:24;10.40;;;6.90;;
64601;SDS011;68371;42.630;23.192;2023-05-10T11:33:52;11.37;;;6.40;;
64601;SDS011;68371;42.630;23.192;2023-05-10T11:36:23;14.45;;;7.47;;
64601;SDS011;68371;42.630;23.192;2023-05-10T11:38:52;10.43;;;7.05;;
64601;SDS011;68371;42.630;23.192;2023-05-10T11:41:22;23.48;;;6.68;;
64601;SDS011;68371;42.630;23.192;2023-05-10T11:43:51;9.20;;;6.32;;
64601;SDS011;68371;42.630;23.192;2023-05-10T11:46:21;10.57;;;6.15;;
64601;SDS011;68371;42.630;23.192;2023-05-10T11:48:55;11.50;;;6.45;;
64601;SDS011;68371;42.630;23.192;2023-05-10T11:51:23;10.07;;;6.05;;
64601;SDS011;68371;42.630;23.192;2023-05-10T11:53:52;9.35;;;6.60;;
64601;SDS011;68371;42.630;23.192;2023-05-10T11:56:21;11.63;;;6.72;;
64601;SDS011;68371;42.630;23.192;2023-05-10T11:58:52;11.45;;;6.50;;
64601;SDS011;68371;42.630;23.192;2023-05-10T12:01:21;15.70;;;7.03;;
64601;SDS011;68371;42.630;23.192;2023-05-10T12:03:52;10.57;;;6.75;;
64601;SDS011;68371;42.630;23.192;2023-05-10T12:06:26;12.15;;;6.88;;
64601;SDS011;68371;42.630;23.192;2023-05-10T12:11:24;9.10;;;6.07;;
64601;SDS011;68371;42.630;23.192;2023-05-10T12:13:54;10.75;;;6.63;;
64601;SDS011;68371;42.630;23.192;2023-05-10T12:16:23;10.40;;;6.20;;
64601;SDS011;68371;42.630;23.192;2023-05-10T12:18:56;9.32;;;6.55;;
64601;SDS011;68371;42.630;23.192;2023-05-10T12:21:24;10.63;;;6.65;;
64601;SDS011;68371;42.630;23.192;2023-05-10T12:23:59;7.60;;;5.93;;
64601;SDS011;68371;42.630;23.192;2023-05-10T12:26:27;7.78;;;5.30;;
64601;SDS011;68371;42.630;23.192;2023-05-10T12:28:55;9.70;;;5.95;;
64601;SDS011;68371;42.630;23.192;2023-05-10T12:31:48;12.38;;;6.55;;
64601;SDS011;68371;42.630;23.192;2023-05-10T12:34:23;12.63;;;6.30;;
64601;SDS011;68371;42.630;23.192;2023-05-10T12:36:57;13.50;;;6.97;;
64601;SDS011;68371;42.630;23.192;2023-05-10T12:39:24;12.38;;;6.70;;
64601;SDS011;68371;42.630;23.192;2023-05-10T12:41:52;17.13;;;7.00;;
64601;SDS011;68371;42.630;23.192;2023-05-10T12:44:19;10.05;;;7.10;;
64601;SDS011;68371;42.630;23.192;2023-05-10T12:46:46;12.75;;;7.15;;
64601;SDS011;68371;42.630;23.192;2023-05-10T12:49:13;9.70;;;5.82;;
64601;SDS011;68371;42.630;23.192;2023-05-10T12:51:41;10.13;;;7.00;;
64601;SDS011;68371;42.630;23.192;2023-05-10T12:54:08;12.95;;;7.07;;
64601;SDS011;68371;42.630;23.192;2023-05-10T12:56:34;9.00;;;6.28;;
64601;SDS011;68371;42.630;23.192;2023-05-10T12:59:02;13.60;;;7.70;;
64601;SDS011;68371;42.630;23.192;2023-05-10T13:01:28;12.07;;;7.55;;
64601;SDS011;68371;42.630;23.192;2023-05-10T13:03:55;11.52;;;6.63;;
64601;SDS011;68371;42.630;23.192;2023-05-10T13:06:23;9.57;;;6.75;;
64601;SDS011;68371;42.630;23.192;2023-05-10T13:08:51;10.38;;;6.95;;
64601;SDS011;68371;42.630;23.192;2023-05-10T13:11:18;12.23;;;7.13;;
64601;SDS011;68371;42.630;23.192;2023-05-10T13:13:46;10.00;;;7.22;;
64601;SDS011;68371;42.630;23.192;2023-05-10T13:16:13;12.15;;;7.90;;
64601;SDS011;68371;42.630;23.192;2023-05-10T13:18:39;14.40;;;7.25;;
64601;SDS011;68371;42.630;23.192;2023-05-10T13:21:06;10.10;;;7.10;;
64601;SDS011;68371;42.630;23.192;2023-05-10T13:23:33;11.35;;;7.07;;
64601;SDS011;68371;42.630;23.192;2023-05-10T13:26:01;10.13;;;6.85;;
64601;SDS011;68371;42.630;23.192;2023-05-10T13:28:29;12.50;;;7.10;;
64601;SDS011;68371;42.630;23.192;2023-05-10T13:30:56;11.88;;;7.30;;
64601;SDS011;68371;42.630;23.192;2023-05-10T13:33:25;16.55;;;8.00;;
64601;SDS011;68371;42.630;23.192;2023-05-10T13:35:51;12.82;;;6.88;;
64601;SDS011;68371;42.630;23.192;2023-05-10T13:38:18;12.75;;;7.25;;
64601;SDS011;68371;42.630;23.192;2023-05-10T13:40:45;14.05;;;7.20;;
64601;SDS011;68371;42.630;23.192;2023-05-10T13:43:13;13.85;;;7.78;;
64601;SDS011;68371;42.630;23.192;2023-05-10T13:45:40;14.35;;;7.47;;
64601;SDS011;68371;42.630;23.192;2023-05-10T13:48:07;10.05;;;7.20;;
64601;SDS011;68371;42.630;23.192;2023-05-10T13:50:33;9.93;;;6.80;;
64601;SDS011;68371;42.630;23.192;2023-05-10T13:53:03;12.50;;;7.03;;
64601;SDS011;68371;42.630;23.192;2023-05-10T13:55:33;11.25;;;6.15;;
64601;SDS011;68371;42.630;23.192;2023-05-10T13:58:03;10.50;;;6.30;;
64601;SDS011;68371;42.630;23.192;2023-05-10T14:00:34;12.88;;;6.70;;
64601;SDS011;68371;42.630;23.192;2023-05-10T14:03:01;11.82;;;7.05;;
64601;SDS011;68371;42.630;23.192;2023-05-10T14:05:29;12.55;;;6.88;;
64601;SDS011;68371;42.630;23.192;2023-05-10T14:08:02;14.07;;;7.00;;
64601;SDS011;68371;42.630;23.192;2023-05-10T14:10:29;14.18;;;7.90;;
64601;SDS011;68371;42.630;23.192;2023-05-10T14:12:57;9.95;;;6.30;;
64601;SDS011;68371;42.630;23.192;2023-05-10T14:15:24;14.10;;;6.97;;
64601;SDS011;68371;42.630;23.192;2023-05-10T14:17:52;9.25;;;6.43;;
64601;SDS011;68371;42.630;23.192;2023-05-10T14:20:19;10.90;;;6.53;;
64601;SDS011;68371;42.630;23.192;2023-05-10T14:22:45;9.18;;;6.28;;
64601;SDS011;68371;42.630;23.192;2023-05-10T14:25:12;8.43;;;6.15;;
64601;SDS011;68371;42.630;23.192;2023-05-10T14:27:40;14.30;;;7.28;;
64601;SDS011;68371;42.630;23.192;2023-05-10T14:30:07;12.82;;;7.75;;
64601;SDS011;68371;42.630;23.192;2023-05-10T14:32:34;12.68;;;7.80;;
64601;SDS011;68371;42.630;23.192;2023-05-10T14:35:05;11.32;;;6.57;;
64601;SDS011;68371;42.630;23.192;2023-05-10T14:37:33;10.77;;;7.03;;
64601;SDS011;68371;42.630;23.192;2023-05-10T14:40:00;11.18;;;7.03;;
64601;SDS011;68371;42.630;23.192;2023-05-10T14:42:29;11.63;;;6.90;;
64601;SDS011;68371;42.630;23.192;2023-05-10T14:44:56;15.25;;;7.45;;
64601;SDS011;68371;42.630;23.192;2023-05-10T14:47:23;11.00;;;7.00;;
64601;SDS011;68371;42.630;23.192;2023-05-10T14:49:49;11.57;;;6.82;;
64601;SDS011;68371;42.630;23.192;2023-05-10T14:52:17;9.95;;;6.47;;
64601;SDS011;68371;42.630;23.192;2023-05-10T14:54:44;11.40;;;6.60;;
64601;SDS011;68371;42.630;23.192;2023-05-10T14:57:11;13.77;;;7.50;;